Lady Debbie — J8NH — position and weather

sailwx.info

Track history (hours):
 
Tides and Currents Weather Stations Pressure Air Temp Water Temp Dewpoint Dewpoint Depression Visibility Wind Speed Wind Dir Waves Ship Positions

Lady Debbie

Last reported at 2017-Sep-20 23:41 UTC. Time now 2017-Sep-25 13:35 UTC.
Position N 14°12' W 061°07'.

Length 32 m; draft 5.2 m.

Type: Tug. MMSI: 377901022.

Date/timePositionNaut miles runAvg speedWind from/ knotsBaromVisibWave heightAir tempDewpointWater temp
2017-Sep-20 23:41N 14°12' W 061°07'1 4.2
2017-Sep-20 23:30N 14°11' W 061°07'2 4.1
2017-Sep-20 23:00N 14°09' W 061°07'2 4.0
2017-Sep-20 22:30N 14°07' W 061°07'2 3.9
2017-Sep-20 22:00N 14°05' W 061°07'2 4.0
2017-Sep-20 21:30N 14°03' W 061°07'2 3.9
2017-Sep-20 21:00N 14°01' W 061°07'2 4.2
2017-Sep-20 20:30N 13°59' W 061°07'  
2017-Sep-18 04:24N 13°55' W 061°08'2 6.0
2017-Sep-18 04:00N 13°57' W 061°07'3 5.7
2017-Sep-18 03:30N 13°60' W 061°07'3 5.7
2017-Sep-18 03:00N 14°03' W 061°07'3 5.6
2017-Sep-18 02:30N 14°05' W 061°07'3 5.9
2017-Sep-18 02:00N 14°08' W 061°07'  
2017-Sep-13 02:09N 14°36' W 061°04'1 6.6
2017-Sep-13 02:00N 14°35' W 061°04'125 7.3
2017-Sep-12 08:57N 16°24' W 062°08'4 7.4
2017-Sep-12 08:27N 16°27' W 062°10'3 7.6
2017-Sep-12 08:00N 16°30' W 062°13'4 7.4
2017-Sep-12 07:30N 16°33' W 062°15'4 7.6
2017-Sep-12 06:56N 16°36' W 062°18'3 7.7
2017-Sep-12 06:30N 16°39' W 062°20'4 7.4
2017-Sep-12 06:00N 16°42' W 062°22'4 7.3
2017-Sep-12 05:30N 16°44' W 062°25'3 0.1
2017-Sep-11 04:02N 16°46' W 062°27'0 4.9
2017-Sep-11 04:00N 16°46' W 062°27'3 5.2
2017-Sep-11 03:30N 16°44' W 062°25'3 5.7
2017-Sep-11 03:01N 16°42' W 062°23'3 5.9
2017-Sep-11 02:31N 16°39' W 062°21'4 5.8
2017-Sep-11 01:52N 16°36' W 062°19'2 5.9
2017-Sep-11 01:30N 16°34' W 062°18'3 5.6
2017-Sep-11 01:00N 16°32' W 062°16'3 5.6
2017-Sep-11 00:31N 16°30' W 062°14'3 5.5
2017-Sep-11 00:01N 16°28' W 062°12'  
Track history (hours):
 
Tides and Currents Weather Stations Pressure Air Temp Water Temp Dewpoint Dewpoint Depression Visibility Wind Speed Wind Dir Waves Ship Positions

Lady Debbie

Last reported at 2017-Sep-20 23:41 UTC. Time now 2017-Sep-25 13:35 UTC.
Position N 14°12' W 061°07'.

Length 32 m; draft 5.2 m.

Type: Tug. MMSI: 377901022.

Date/timePositionNaut miles runAvg speedWind from/ knotsBaromVisibWave heightAir tempDewpointWater temp
2017-Sep-20 23:41N 14°12' W 061°07'1 4.2
2017-Sep-20 23:30N 14°11' W 061°07'2 4.1
2017-Sep-20 23:00N 14°09' W 061°07'2 4.0
2017-Sep-20 22:30N 14°07' W 061°07'2 3.9
2017-Sep-20 22:00N 14°05' W 061°07'2 4.0
2017-Sep-20 21:30N 14°03' W 061°07'2 3.9
2017-Sep-20 21:00N 14°01' W 061°07'2 4.2
2017-Sep-20 20:30N 13°59' W 061°07'  
2017-Sep-18 04:24N 13°55' W 061°08'2 6.0
2017-Sep-18 04:00N 13°57' W 061°07'3 5.7
2017-Sep-18 03:30N 13°60' W 061°07'3 5.7
2017-Sep-18 03:00N 14°03' W 061°07'3 5.6
2017-Sep-18 02:30N 14°05' W 061°07'3 5.9
2017-Sep-18 02:00N 14°08' W 061°07'  
2017-Sep-13 02:09N 14°36' W 061°04'1 6.6
2017-Sep-13 02:00N 14°35' W 061°04'125 7.3
2017-Sep-12 08:57N 16°24' W 062°08'4 7.4
2017-Sep-12 08:27N 16°27' W 062°10'3 7.6
2017-Sep-12 08:00N 16°30' W 062°13'4 7.4
2017-Sep-12 07:30N 16°33' W 062°15'4 7.6
2017-Sep-12 06:56N 16°36' W 062°18'3 7.7
2017-Sep-12 06:30N 16°39' W 062°20'4 7.4
2017-Sep-12 06:00N 16°42' W 062°22'4 7.3
2017-Sep-12 05:30N 16°44' W 062°25'3 0.1
2017-Sep-11 04:02N 16°46' W 062°27'0 4.9
2017-Sep-11 04:00N 16°46' W 062°27'3 5.2
2017-Sep-11 03:30N 16°44' W 062°25'3 5.7
2017-Sep-11 03:01N 16°42' W 062°23'3 5.9
2017-Sep-11 02:31N 16°39' W 062°21'4 5.8
2017-Sep-11 01:52N 16°36' W 062°19'2 5.9
2017-Sep-11 01:30N 16°34' W 062°18'3 5.6
2017-Sep-11 01:00N 16°32' W 062°16'3 5.6
2017-Sep-11 00:31N 16°30' W 062°14'3 5.5
2017-Sep-11 00:01N 16°28' W 062°12'  

Dump ship's entire track history